createdAt,value
2023-05-01T00:08:12.159Z,10.95
2023-05-01T00:18:33.821Z,10.38
2023-05-01T00:28:56.901Z,10.75
2023-05-01T00:39:18.539Z,10.20
2023-05-01T00:49:43.860Z,8.18
2023-05-01T01:00:07.020Z,9.40
2023-05-01T01:10:45.868Z,10.03
2023-05-01T01:21:13.115Z,10.80
2023-05-01T01:31:46.030Z,10.25
2023-05-01T01:42:14.795Z,9.52
2023-05-01T01:52:39.371Z,10.45
2023-05-01T02:03:04.874Z,8.45
2023-05-01T02:13:29.744Z,7.90
2023-05-01T02:23:53.046Z,6.97
2023-05-01T02:34:15.009Z,7.30
2023-05-01T02:44:44.690Z,7.72
2023-05-01T02:55:08.468Z,6.13
2023-05-01T03:05:31.606Z,7.07
2023-05-01T03:15:53.557Z,6.60
2023-05-01T03:26:18.234Z,6.30
2023-05-01T03:36:40.354Z,5.80
2023-05-01T03:47:03.578Z,6.53
2023-05-01T03:57:30.936Z,7.85
2023-05-01T04:07:57.177Z,6.18
2023-05-01T04:18:19.041Z,6.43
2023-05-01T04:28:44.504Z,6.78
2023-05-01T04:39:08.339Z,5.32
2023-05-01T04:49:33.321Z,5.70
2023-05-01T04:59:57.736Z,4.65
2023-05-01T05:10:21.402Z,3.97
2023-05-01T05:20:55.449Z,4.13
2023-05-01T05:31:20.248Z,4.10
2023-05-01T05:41:41.736Z,4.07
2023-05-01T05:52:06.570Z,4.20
2023-05-01T06:02:29.215Z,4.07
2023-05-01T06:12:56.753Z,5.03
2023-05-01T06:23:28.728Z,4.15
2023-05-01T06:34:19.203Z,3.97
2023-05-01T06:44:50.205Z,3.30
2023-05-01T06:55:13.640Z,3.88
2023-05-01T07:05:35.637Z,4.32
2023-05-01T07:16:01.703Z,4.43
2023-05-01T07:26:23.822Z,3.70
2023-05-01T07:37:06.847Z,3.50
2023-05-01T07:48:10.610Z,3.10
2023-05-01T07:58:38.842Z,3.28
2023-05-01T08:09:00.596Z,2.70
2023-05-01T08:19:24.475Z,3.42
2023-05-01T08:29:50.218Z,3.17
2023-05-01T08:40:16.450Z,2.88
2023-05-01T08:50:50.630Z,2.75
2023-05-01T09:01:42.651Z,2.67
2023-05-01T09:12:14.122Z,2.90
2023-05-01T09:22:40.346Z,3.60
2023-05-01T09:33:09.693Z,2.90
2023-05-01T09:43:34.233Z,2.58
2023-05-01T09:54:00.262Z,3.37
2023-05-01T10:04:33.363Z,2.60
2023-05-01T10:14:55.267Z,3.58
2023-05-01T10:25:19.019Z,2.83
2023-05-01T10:35:46.640Z,3.27
2023-05-01T10:46:31.677Z,3.63
2023-05-01T10:56:54.232Z,2.65
2023-05-01T11:07:20.118Z,3.90
2023-05-01T11:28:14.084Z,3.65
2023-05-01T11:38:36.133Z,3.28
2023-05-01T11:49:01.133Z,3.85
2023-05-01T11:59:23.088Z,3.85
2023-05-01T12:10:14.097Z,3.58
2023-05-01T12:20:37.734Z,3.20
2023-05-01T12:31:05.486Z,4.10
2023-05-01T12:41:49.282Z,3.60
2023-05-01T12:52:15.408Z,3.10
2023-05-01T13:02:37.319Z,2.95
2023-05-01T13:13:00.143Z,3.40
2023-05-01T13:23:21.457Z,4.03
2023-05-01T13:33:46.657Z,3.60
2023-05-01T13:44:08.089Z,4.05
2023-05-01T13:54:31.019Z,4.35
2023-05-01T14:04:52.877Z,3.75
2023-05-01T14:15:17.497Z,3.53
2023-05-01T14:25:40.207Z,3.97
2023-05-01T14:46:32.626Z,3.92
2023-05-01T14:56:55.571Z,4.05
2023-05-01T15:07:17.187Z,4.13
2023-05-01T15:17:40.320Z,4.20
2023-05-01T15:28:02.054Z,4.45
2023-05-01T15:38:26.067Z,4.68
2023-05-01T15:48:48.108Z,4.40
2023-05-01T15:59:11.462Z,4.68
2023-05-01T16:09:33.467Z,4.20
2023-05-01T16:19:56.916Z,4.65
2023-05-01T16:30:18.611Z,3.88
2023-05-01T16:40:43.686Z,4.00
2023-05-01T16:51:07.275Z,4.20
2023-05-01T17:01:30.154Z,4.37
2023-05-01T17:11:51.729Z,5.82
2023-05-01T17:22:15.059Z,4.88
2023-05-01T17:32:37.578Z,5.07
2023-05-01T17:43:00.942Z,5.40
2023-05-01T17:53:23.637Z,5.57
2023-05-01T18:03:46.610Z,5.10
2023-05-01T18:14:08.227Z,6.20
2023-05-01T18:24:31.655Z,4.68
2023-05-01T18:34:53.492Z,5.10
2023-05-01T18:45:16.663Z,4.40
2023-05-01T18:55:38.243Z,5.82
2023-05-01T19:06:01.242Z,5.32
2023-05-01T19:16:23.425Z,18.27
2023-05-01T19:26:46.548Z,6.05
2023-05-01T19:37:08.111Z,9.10
2023-05-01T19:47:31.247Z,7.32
2023-05-01T19:57:53.250Z,8.70
2023-05-01T20:08:16.484Z,8.80
2023-05-01T20:18:38.293Z,11.07
2023-05-01T20:29:01.335Z,9.32
2023-05-01T20:39:23.142Z,10.23
2023-05-01T20:49:46.039Z,7.35
2023-05-01T21:00:08.735Z,8.82
2023-05-01T21:10:31.751Z,8.10
2023-05-01T21:20:53.768Z,8.00
2023-05-01T21:31:17.391Z,7.90
2023-05-01T21:41:39.988Z,8.48
2023-05-01T21:52:03.179Z,7.88
2023-05-01T22:02:24.845Z,7.88
2023-05-01T22:12:51.030Z,9.65
2023-05-01T22:23:12.854Z,8.32
2023-05-01T22:33:35.619Z,8.27
2023-05-01T22:43:57.237Z,7.65
2023-05-01T22:54:20.801Z,8.05
2023-05-01T23:04:42.738Z,7.78
2023-05-01T23:15:08.810Z,7.35
2023-05-01T23:25:30.442Z,7.95
2023-05-01T23:35:53.860Z,7.85
2023-05-01T23:46:15.795Z,8.23
2023-05-01T23:56:38.911Z,7.78
